sensor_id;sensor_type;location;lat;lon;timestamp;pressure;altitude;pressure_sealevel;temperature;humidity
6349;BME280;3207;42.648;23.406;2023-04-15T00:00:48;98874.97;;;10.43;nan
6349;BME280;3207;42.648;23.406;2023-04-15T00:03:16;98876.50;;;10.55;nan
6349;BME280;3207;42.648;23.406;2023-04-15T00:05:43;98861.66;;;10.46;nan
6349;BME280;3207;42.648;23.406;2023-04-15T00:08:10;98874.59;;;10.47;nan
6349;BME280;3207;42.648;23.406;2023-04-15T00:10:37;98872.78;;;10.48;nan
6349;BME280;3207;42.648;23.406;2023-04-15T00:13:05;98880.19;;;10.52;nan
6349;BME280;3207;42.648;23.406;2023-04-15T00:15:32;98875.25;;;10.40;nan
6349;BME280;3207;42.648;23.406;2023-04-15T00:17:59;98879.66;;;10.30;nan
6349;BME280;3207;42.648;23.406;2023-04-15T00:20:26;98877.19;;;10.28;nan
6349;BME280;3207;42.648;23.406;2023-04-15T00:22:53;98871.41;;;10.24;nan
6349;BME280;3207;42.648;23.406;2023-04-15T00:25:20;98864.28;;;10.26;nan
6349;BME280;3207;42.648;23.406;2023-04-15T00:27:47;98884.19;;;10.18;nan
6349;BME280;3207;42.648;23.406;2023-04-15T00:30:16;98877.44;;;10.15;nan
6349;BME280;3207;42.648;23.406;2023-04-15T00:32:43;98882.25;;;10.30;nan
6349;BME280;3207;42.648;23.406;2023-04-15T00:35:10;98884.88;;;10.30;nan
6349;BME280;3207;42.648;23.406;2023-04-15T00:37:37;98888.31;;;10.20;nan
6349;BME280;3207;42.648;23.406;2023-04-15T00:40:05;98893.66;;;10.19;nan
6349;BME280;3207;42.648;23.406;2023-04-15T00:42:33;98881.00;;;10.14;nan
6349;BME280;3207;42.648;23.406;2023-04-15T00:45:00;98884.63;;;10.23;nan
6349;BME280;3207;42.648;23.406;2023-04-15T00:47:29;98872.34;;;10.14;nan
6349;BME280;3207;42.648;23.406;2023-04-15T00:49:56;98886.41;;;10.22;nan
6349;BME280;3207;42.648;23.406;2023-04-15T00:52:23;98884.47;;;10.24;nan
6349;BME280;3207;42.648;23.406;2023-04-15T00:54:50;98882.00;;;10.23;nan
6349;BME280;3207;42.648;23.406;2023-04-15T00:57:19;98883.63;;;10.14;nan
6349;BME280;3207;42.648;23.406;2023-04-15T00:59:46;98869.75;;;10.14;nan
6349;BME280;3207;42.648;23.406;2023-04-15T01:02:14;98882.69;;;10.25;nan
6349;BME280;3207;42.648;23.406;2023-04-15T01:04:42;98854.38;;;10.20;nan
6349;BME280;3207;42.648;23.406;2023-04-15T01:07:09;98869.78;;;10.23;nan
6349;BME280;3207;42.648;23.406;2023-04-15T01:09:36;98865.38;;;10.34;nan
6349;BME280;3207;42.648;23.406;2023-04-15T01:12:04;98854.78;;;10.25;nan
6349;BME280;3207;42.648;23.406;2023-04-15T01:14:32;98865.22;;;10.06;nan
6349;BME280;3207;42.648;23.406;2023-04-15T01:16:59;98860.09;;;9.95;nan
6349;BME280;3207;42.648;23.406;2023-04-15T01:19:27;98857.31;;;9.87;nan
6349;BME280;3207;42.648;23.406;2023-04-15T01:21:55;98860.63;;;9.89;nan
6349;BME280;3207;42.648;23.406;2023-04-15T01:24:23;98866.63;;;9.61;nan
6349;BME280;3207;42.648;23.406;2023-04-15T01:26:53;98858.25;;;9.67;nan
6349;BME280;3207;42.648;23.406;2023-04-15T01:29:19;98871.34;;;9.86;nan
6349;BME280;3207;42.648;23.406;2023-04-15T01:31:50;98868.72;;;9.86;nan
6349;BME280;3207;42.648;23.406;2023-04-15T01:34:18;98869.84;;;9.93;nan
6349;BME280;3207;42.648;23.406;2023-04-15T01:36:45;98860.75;;;9.78;nan
6349;BME280;3207;42.648;23.406;2023-04-15T01:39:12;98873.16;;;9.95;nan
6349;BME280;3207;42.648;23.406;2023-04-15T01:41:39;98874.25;;;10.02;nan
6349;BME280;3207;42.648;23.406;2023-04-15T01:44:08;98876.31;;;10.08;nan
6349;BME280;3207;42.648;23.406;2023-04-15T01:46:35;98867.81;;;10.06;nan
6349;BME280;3207;42.648;23.406;2023-04-15T01:49:02;98869.41;;;9.78;nan
6349;BME280;3207;42.648;23.406;2023-04-15T01:51:28;98869.41;;;9.88;nan
6349;BME280;3207;42.648;23.406;2023-04-15T01:53:56;98857.63;;;9.84;nan
6349;BME280;3207;42.648;23.406;2023-04-15T01:56:23;98868.84;;;9.75;nan
6349;BME280;3207;42.648;23.406;2023-04-15T01:58:49;98868.00;;;9.65;nan
6349;BME280;3207;42.648;23.406;2023-04-15T02:01:18;98855.88;;;9.54;nan
6349;BME280;3207;42.648;23.406;2023-04-15T02:03:45;98863.44;;;9.57;nan
6349;BME280;3207;42.648;23.406;2023-04-15T02:06:12;98866.09;;;9.76;nan
6349;BME280;3207;42.648;23.406;2023-04-15T02:08:39;98858.16;;;9.78;nan
6349;BME280;3207;42.648;23.406;2023-04-15T02:11:05;98850.75;;;9.83;nan
6349;BME280;3207;42.648;23.406;2023-04-15T02:13:32;98845.22;;;9.76;nan
6349;BME280;3207;42.648;23.406;2023-04-15T02:15:59;98863.81;;;9.83;nan
6349;BME280;3207;42.648;23.406;2023-04-15T02:18:27;98858.97;;;9.88;nan
6349;BME280;3207;42.648;23.406;2023-04-15T02:20:54;98858.72;;;9.81;nan
6349;BME280;3207;42.648;23.406;2023-04-15T02:23:22;98862.16;;;9.91;nan
6349;BME280;3207;42.648;23.406;2023-04-15T02:25:49;98858.03;;;9.89;nan
6349;BME280;3207;42.648;23.406;2023-04-15T02:28:16;98855.97;;;9.83;nan
6349;BME280;3207;42.648;23.406;2023-04-15T02:30:46;98838.66;;;9.82;nan
6349;BME280;3207;42.648;23.406;2023-04-15T02:33:13;98822.56;;;9.77;nan
6349;BME280;3207;42.648;23.406;2023-04-15T02:35:42;98854.31;;;9.91;nan
6349;BME280;3207;42.648;23.406;2023-04-15T02:38:09;98852.94;;;9.97;nan
6349;BME280;3207;42.648;23.406;2023-04-15T02:40:37;98850.47;;;9.86;nan
6349;BME280;3207;42.648;23.406;2023-04-15T02:43:03;98844.38;;;9.57;nan
6349;BME280;3207;42.648;23.406;2023-04-15T02:45:31;98841.84;;;9.36;nan
6349;BME280;3207;42.648;23.406;2023-04-15T02:47:58;98849.16;;;9.42;nan
6349;BME280;3207;42.648;23.406;2023-04-15T02:50:28;98850.03;;;9.22;nan
6349;BME280;3207;42.648;23.406;2023-04-15T02:52:57;98852.50;;;9.23;nan
6349;BME280;3207;42.648;23.406;2023-04-15T02:55:25;98852.78;;;9.20;nan
6349;BME280;3207;42.648;23.406;2023-04-15T02:57:52;98841.41;;;9.21;nan
6349;BME280;3207;42.648;23.406;2023-04-15T03:00:19;98811.66;;;9.03;nan
6349;BME280;3207;42.648;23.406;2023-04-15T03:02:46;98833.81;;;9.18;nan
6349;BME280;3207;42.648;23.406;2023-04-15T03:05:16;98847.88;;;9.36;nan
6349;BME280;3207;42.648;23.406;2023-04-15T03:07:43;98845.53;;;9.33;nan
6349;BME280;3207;42.648;23.406;2023-04-15T03:10:11;98846.50;;;9.32;nan
6349;BME280;3207;42.648;23.406;2023-04-15T03:12:38;98841.00;;;9.35;nan
6349;BME280;3207;42.648;23.406;2023-04-15T03:15:06;98842.56;;;9.47;nan
6349;BME280;3207;42.648;23.406;2023-04-15T03:17:33;98842.44;;;9.49;nan
6349;BME280;3207;42.648;23.406;2023-04-15T03:20:00;98840.81;;;9.58;nan
6349;BME280;3207;42.648;23.406;2023-04-15T03:22:28;98841.88;;;9.55;nan
6349;BME280;3207;42.648;23.406;2023-04-15T03:24:55;98843.97;;;9.61;nan
6349;BME280;3207;42.648;23.406;2023-04-15T03:27:23;98853.16;;;9.65;nan
6349;BME280;3207;42.648;23.406;2023-04-15T03:29:50;98840.00;;;9.76;nan
6349;BME280;3207;42.648;23.406;2023-04-15T03:32:17;98845.34;;;9.75;nan
6349;BME280;3207;42.648;23.406;2023-04-15T03:34:44;98852.91;;;9.78;nan
6349;BME280;3207;42.648;23.406;2023-04-15T03:37:10;98854.56;;;9.69;nan
6349;BME280;3207;42.648;23.406;2023-04-15T03:39:37;98844.41;;;9.76;nan
6349;BME280;3207;42.648;23.406;2023-04-15T03:42:04;98854.84;;;9.76;nan
6349;BME280;3207;42.648;23.406;2023-04-15T03:44:32;98854.31;;;9.82;nan
6349;BME280;3207;42.648;23.406;2023-04-15T03:46:59;98851.69;;;9.72;nan
6349;BME280;3207;42.648;23.406;2023-04-15T03:49:26;98851.81;;;9.71;nan
6349;BME280;3207;42.648;23.406;2023-04-15T03:51:53;98843.56;;;9.75;nan
6349;BME280;3207;42.648;23.406;2023-04-15T03:54:20;98850.06;;;9.81;nan
6349;BME280;3207;42.648;23.406;2023-04-15T03:56:47;98846.63;;;9.80;nan
6349;BME280;3207;42.648;23.406;2023-04-15T03:59:13;98843.31;;;9.78;nan
6349;BME280;3207;42.648;23.406;2023-04-15T04:01:42;98837.84;;;9.81;nan
6349;BME280;3207;42.648;23.406;2023-04-15T04:04:09;98853.50;;;9.81;nan
6349;BME280;3207;42.648;23.406;2023-04-15T04:06:35;98851.28;;;9.86;nan
6349;BME280;3207;42.648;23.406;2023-04-15T04:09:02;98845.94;;;9.88;nan
6349;BME280;3207;42.648;23.406;2023-04-15T04:11:29;98850.63;;;9.84;nan
6349;BME280;3207;42.648;23.406;2023-04-15T04:13:57;98851.84;;;9.90;nan
6349;BME280;3207;42.648;23.406;2023-04-15T04:16:24;98847.72;;;9.87;nan
6349;BME280;3207;42.648;23.406;2023-04-15T04:18:52;98851.03;;;9.89;nan
6349;BME280;3207;42.648;23.406;2023-04-15T04:21:19;98847.19;;;9.84;nan
6349;BME280;3207;42.648;23.406;2023-04-15T04:23:46;98848.13;;;9.83;nan
6349;BME280;3207;42.648;23.406;2023-04-15T04:26:13;98854.06;;;9.85;nan
6349;BME280;3207;42.648;23.406;2023-04-15T04:28:40;98857.63;;;9.84;nan
6349;BME280;3207;42.648;23.406;2023-04-15T04:31:07;98853.75;;;9.78;nan
6349;BME280;3207;42.648;23.406;2023-04-15T04:33:34;98855.38;;;9.70;nan
6349;BME280;3207;42.648;23.406;2023-04-15T04:36:02;98865.94;;;9.59;nan
6349;BME280;3207;42.648;23.406;2023-04-15T04:38:29;98863.31;;;9.59;nan
6349;BME280;3207;42.648;23.406;2023-04-15T04:40:56;98867.59;;;9.60;nan
6349;BME280;3207;42.648;23.406;2023-04-15T04:43:23;98861.94;;;9.54;nan
6349;BME280;3207;42.648;23.406;2023-04-15T04:45:50;98863.88;;;9.62;nan
6349;BME280;3207;42.648;23.406;2023-04-15T04:48:17;98871.78;;;9.41;nan
6349;BME280;3207;42.648;23.406;2023-04-15T04:50:44;98879.34;;;9.44;nan
6349;BME280;3207;42.648;23.406;2023-04-15T04:53:12;98873.22;;;9.25;nan
6349;BME280;3207;42.648;23.406;2023-04-15T04:55:40;98878.03;;;9.20;nan
6349;BME280;3207;42.648;23.406;2023-04-15T04:58:07;98883.00;;;9.02;nan
6349;BME280;3207;42.648;23.406;2023-04-15T05:00:34;98886.84;;;8.98;nan
6349;BME280;3207;42.648;23.406;2023-04-15T05:03:02;98880.50;;;9.21;nan
6349;BME280;3207;42.648;23.406;2023-04-15T05:05:29;98883.47;;;9.16;nan
6349;BME280;3207;42.648;23.406;2023-04-15T05:07:56;98873.38;;;9.33;nan
6349;BME280;3207;42.648;23.406;2023-04-15T05:10:24;98874.81;;;9.46;nan
6349;BME280;3207;42.648;23.406;2023-04-15T05:12:51;98869.63;;;9.56;nan
6349;BME280;3207;42.648;23.406;2023-04-15T05:15:18;98873.22;;;9.65;nan
6349;BME280;3207;42.648;23.406;2023-04-15T05:17:45;98876.28;;;9.79;nan
6349;BME280;3207;42.648;23.406;2023-04-15T05:20:12;98855.53;;;9.78;nan
6349;BME280;3207;42.648;23.406;2023-04-15T05:22:40;98876.44;;;9.97;nan
6349;BME280;3207;42.648;23.406;2023-04-15T05:25:07;98877.69;;;10.03;nan
6349;BME280;3207;42.648;23.406;2023-04-15T05:27:35;98881.69;;;10.16;nan
6349;BME280;3207;42.648;23.406;2023-04-15T05:30:02;98878.81;;;10.29;nan
6349;BME280;3207;42.648;23.406;2023-04-15T05:32:29;98881.19;;;10.22;nan
6349;BME280;3207;42.648;23.406;2023-04-15T05:34:56;98882.25;;;10.20;nan
6349;BME280;3207;42.648;23.406;2023-04-15T05:37:23;98889.13;;;10.21;nan
6349;BME280;3207;42.648;23.406;2023-04-15T05:39:50;98892.31;;;10.24;nan
6349;BME280;3207;42.648;23.406;2023-04-15T05:42:17;98884.59;;;10.33;nan
6349;BME280;3207;42.648;23.406;2023-04-15T05:44:45;98885.44;;;10.43;nan
6349;BME280;3207;42.648;23.406;2023-04-15T05:47:12;98894.66;;;10.47;nan
6349;BME280;3207;42.648;23.406;2023-04-15T05:49:39;98905.75;;;10.49;nan
6349;BME280;3207;42.648;23.406;2023-04-15T05:52:05;98892.84;;;10.57;nan
6349;BME280;3207;42.648;23.406;2023-04-15T05:54:32;98896.44;;;10.46;nan
6349;BME280;3207;42.648;23.406;2023-04-15T05:56:59;98897.41;;;10.55;nan
6349;BME280;3207;42.648;23.406;2023-04-15T05:59:27;98900.25;;;10.61;nan
6349;BME280;3207;42.648;23.406;2023-04-15T06:01:55;98906.88;;;10.46;nan
6349;BME280;3207;42.648;23.406;2023-04-15T06:04:22;98894.50;;;10.39;nan
6349;BME280;3207;42.648;23.406;2023-04-15T06:06:49;98913.06;;;10.45;nan
6349;BME280;3207;42.648;23.406;2023-04-15T06:09:15;98911.69;;;10.41;nan
6349;BME280;3207;42.648;23.406;2023-04-15T06:11:42;98910.47;;;10.36;nan
6349;BME280;3207;42.648;23.406;2023-04-15T06:14:09;98906.47;;;10.41;nan
6349;BME280;3207;42.648;23.406;2023-04-15T06:16:36;98912.66;;;10.21;nan
6349;BME280;3207;42.648;23.406;2023-04-15T06:19:04;98915.38;;;10.19;nan
6349;BME280;3207;42.648;23.406;2023-04-15T06:21:31;98921.88;;;10.25;nan
6349;BME280;3207;42.648;23.406;2023-04-15T06:23:58;98900.69;;;10.18;nan
6349;BME280;3207;42.648;23.406;2023-04-15T06:26:25;98921.19;;;10.52;nan
6349;BME280;3207;42.648;23.406;2023-04-15T06:28:52;98901.38;;;10.40;nan
6349;BME280;3207;42.648;23.406;2023-04-15T06:31:19;98926.41;;;10.52;nan
6349;BME280;3207;42.648;23.406;2023-04-15T06:33:46;98923.78;;;10.61;nan
6349;BME280;3207;42.648;23.406;2023-04-15T06:36:14;98930.94;;;10.69;nan
6349;BME280;3207;42.648;23.406;2023-04-15T06:38:41;98927.91;;;10.64;nan
6349;BME280;3207;42.648;23.406;2023-04-15T06:41:08;98936.31;;;10.68;nan
6349;BME280;3207;42.648;23.406;2023-04-15T06:43:35;98933.97;;;10.45;nan
6349;BME280;3207;42.648;23.406;2023-04-15T06:46:02;98918.69;;;10.21;nan
6349;BME280;3207;42.648;23.406;2023-04-15T06:48:28;98930.28;;;10.38;nan
6349;BME280;3207;42.648;23.406;2023-04-15T06:50:55;98932.88;;;10.48;nan
6349;BME280;3207;42.648;23.406;2023-04-15T06:53:24;98942.50;;;10.47;nan
6349;BME280;3207;42.648;23.406;2023-04-15T06:55:51;98953.50;;;10.51;nan
6349;BME280;3207;42.648;23.406;2023-04-15T06:58:18;98955.56;;;10.57;nan
6349;BME280;3207;42.648;23.406;2023-04-15T07:00:45;98948.09;;;10.81;nan
6349;BME280;3207;42.648;23.406;2023-04-15T07:03:12;98955.41;;;10.87;nan
6349;BME280;3207;42.648;23.406;2023-04-15T07:05:39;98949.22;;;10.98;nan
6349;BME280;3207;42.648;23.406;2023-04-15T07:08:06;98956.06;;;11.09;nan
6349;BME280;3207;42.648;23.406;2023-04-15T07:10:35;98963.06;;;11.18;nan
6349;BME280;3207;42.648;23.406;2023-04-15T07:13:04;98953.28;;;11.20;nan
6349;BME280;3207;42.648;23.406;2023-04-15T07:15:33;98971.59;;;11.20;nan
6349;BME280;3207;42.648;23.406;2023-04-15T07:18:00;98968.25;;;11.37;nan
6349;BME280;3207;42.648;23.406;2023-04-15T07:20:26;98977.16;;;11.54;nan
6349;BME280;3207;42.648;23.406;2023-04-15T07:22:53;98982.47;;;11.71;nan
6349;BME280;3207;42.648;23.406;2023-04-15T07:25:20;98989.75;;;11.78;nan
6349;BME280;3207;42.648;23.406;2023-04-15T07:27:48;98992.84;;;11.63;nan
6349;BME280;3207;42.648;23.406;2023-04-15T07:30:15;98983.47;;;11.98;nan
6349;BME280;3207;42.648;23.406;2023-04-15T07:32:42;98990.09;;;12.20;nan
6349;BME280;3207;42.648;23.406;2023-04-15T07:35:09;98988.16;;;12.49;nan
6349;BME280;3207;42.648;23.406;2023-04-15T07:37:36;98991.75;;;12.66;nan
6349;BME280;3207;42.648;23.406;2023-04-15T07:40:03;98989.41;;;12.98;nan
6349;BME280;3207;42.648;23.406;2023-04-15T07:42:31;98997.69;;;13.29;nan
6349;BME280;3207;42.648;23.406;2023-04-15T07:45:00;98996.63;;;13.40;nan
6349;BME280;3207;42.648;23.406;2023-04-15T07:47:27;98996.63;;;13.40;nan
6349;BME280;3207;42.648;23.406;2023-04-15T07:49:53;98999.25;;;13.66;nan
6349;BME280;3207;42.648;23.406;2023-04-15T07:52:20;98998.78;;;13.44;nan
6349;BME280;3207;42.648;23.406;2023-04-15T07:54:47;99002.59;;;13.50;nan
6349;BME280;3207;42.648;23.406;2023-04-15T07:57:14;98986.69;;;13.51;nan
6349;BME280;3207;42.648;23.406;2023-04-15T07:59:41;98999.44;;;13.72;nan
6349;BME280;3207;42.648;23.406;2023-04-15T08:02:09;99005.28;;;13.92;nan
6349;BME280;3207;42.648;23.406;2023-04-15T08:04:36;99016.16;;;13.97;nan
6349;BME280;3207;42.648;23.406;2023-04-15T08:07:03;99013.34;;;13.99;nan
6349;BME280;3207;42.648;23.406;2023-04-15T08:09:30;99011.63;;;14.15;nan
6349;BME280;3207;42.648;23.406;2023-04-15T08:11:57;99020.50;;;14.22;nan
6349;BME280;3207;42.648;23.406;2023-04-15T08:14:24;99021.69;;;14.28;nan
6349;BME280;3207;42.648;23.406;2023-04-15T08:16:51;99016.66;;;14.43;nan
6349;BME280;3207;42.648;23.406;2023-04-15T08:19:19;99016.69;;;14.09;nan
6349;BME280;3207;42.648;23.406;2023-04-15T08:21:46;99027.69;;;13.78;nan
6349;BME280;3207;42.648;23.406;2023-04-15T08:24:12;99025.97;;;14.29;nan
6349;BME280;3207;42.648;23.406;2023-04-15T08:26:40;99027.34;;;14.41;nan
6349;BME280;3207;42.648;23.406;2023-04-15T08:29:07;99025.94;;;14.71;nan
6349;BME280;3207;42.648;23.406;2023-04-15T08:31:33;99019.56;;;14.82;nan
6349;BME280;3207;42.648;23.406;2023-04-15T08:34:00;99028.94;;;15.09;nan
6349;BME280;3207;42.648;23.406;2023-04-15T08:36:29;99035.19;;;15.16;nan
6349;BME280;3207;42.648;23.406;2023-04-15T08:38:56;99036.66;;;15.34;nan
6349;BME280;3207;42.648;23.406;2023-04-15T08:41:25;99037.00;;;15.56;nan
6349;BME280;3207;42.648;23.406;2023-04-15T08:43:55;99037.66;;;15.66;nan
6349;BME280;3207;42.648;23.406;2023-04-15T08:46:22;99030.38;;;15.68;nan
6349;BME280;3207;42.648;23.406;2023-04-15T08:48:49;99038.47;;;15.58;nan
6349;BME280;3207;42.648;23.406;2023-04-15T08:51:16;99040.28;;;15.66;nan
6349;BME280;3207;42.648;23.406;2023-04-15T08:53:45;99049.66;;;15.60;nan
6349;BME280;3207;42.648;23.406;2023-04-15T08:56:13;99030.44;;;15.03;nan
6349;BME280;3207;42.648;23.406;2023-04-15T08:58:43;99045.88;;;15.22;nan
6349;BME280;3207;42.648;23.406;2023-04-15T09:01:11;99036.19;;;15.23;nan
6349;BME280;3207;42.648;23.406;2023-04-15T09:03:38;99050.81;;;15.33;nan
6349;BME280;3207;42.648;23.406;2023-04-15T09:06:05;99047.53;;;15.56;nan
6349;BME280;3207;42.648;23.406;2023-04-15T09:08:32;99049.16;;;15.73;nan
6349;BME280;3207;42.648;23.406;2023-04-15T09:11:02;99040.59;;;15.71;nan
6349;BME280;3207;42.648;23.406;2023-04-15T09:13:29;99055.75;;;15.45;nan
6349;BME280;3207;42.648;23.406;2023-04-15T09:15:56;99055.09;;;15.67;nan
6349;BME280;3207;42.648;23.406;2023-04-15T09:18:27;99069.22;;;15.82;nan
6349;BME280;3207;42.648;23.406;2023-04-15T09:20:55;99062.31;;;15.49;nan
6349;BME280;3207;42.648;23.406;2023-04-15T09:23:22;99066.13;;;15.22;nan
6349;BME280;3207;42.648;23.406;2023-04-15T09:25:49;99058.34;;;14.96;nan
6349;BME280;3207;42.648;23.406;2023-04-15T09:28:24;99055.41;;;15.15;nan
6349;BME280;3207;42.648;23.406;2023-04-15T09:30:54;99054.75;;;15.05;nan
6349;BME280;3207;42.648;23.406;2023-04-15T09:33:22;99061.66;;;15.06;nan
6349;BME280;3207;42.648;23.406;2023-04-15T09:35:59;99060.34;;;15.02;nan
6349;BME280;3207;42.648;23.406;2023-04-15T09:38:27;99057.84;;;14.84;nan
6349;BME280;3207;42.648;23.406;2023-04-15T09:40:54;99059.91;;;14.48;nan
6349;BME280;3207;42.648;23.406;2023-04-15T09:43:22;99016.59;;;14.26;nan
6349;BME280;3207;42.648;23.406;2023-04-15T09:45:52;99056.34;;;14.74;nan
6349;BME280;3207;42.648;23.406;2023-04-15T09:48:21;99054.00;;;14.62;nan
6349;BME280;3207;42.648;23.406;2023-04-15T09:50:48;99049.47;;;14.89;nan
6349;BME280;3207;42.648;23.406;2023-04-15T09:53:19;99050.50;;;15.12;nan
6349;BME280;3207;42.648;23.406;2023-04-15T09:55:49;99047.34;;;15.41;nan
6349;BME280;3207;42.648;23.406;2023-04-15T09:58:20;99057.06;;;15.73;nan
6349;BME280;3207;42.648;23.406;2023-04-15T10:00:48;99032.38;;;16.13;nan
6349;BME280;3207;42.648;23.406;2023-04-15T10:03:25;99058.22;;;15.70;nan
6349;BME280;3207;42.648;23.406;2023-04-15T10:05:54;99050.78;;;15.82;nan
6349;BME280;3207;42.648;23.406;2023-04-15T10:08:23;99054.38;;;15.97;nan
6349;BME280;3207;42.648;23.406;2023-04-15T10:10:50;99058.03;;;15.88;nan
6349;BME280;3207;42.648;23.406;2023-04-15T10:13:18;99054.09;;;15.76;nan
6349;BME280;3207;42.648;23.406;2023-04-15T10:15:50;99058.47;;;16.00;nan
6349;BME280;3207;42.648;23.406;2023-04-15T10:18:20;99034.56;;;16.09;nan
6349;BME280;3207;42.648;23.406;2023-04-15T10:20:49;99062.75;;;16.01;nan
6349;BME280;3207;42.648;23.406;2023-04-15T10:23:17;99052.44;;;15.75;nan
6349;BME280;3207;42.648;23.406;2023-04-15T10:25:45;99058.38;;;15.69;nan
6349;BME280;3207;42.648;23.406;2023-04-15T10:28:14;99060.31;;;15.99;nan
6349;BME280;3207;42.648;23.406;2023-04-15T10:30:42;99061.31;;;15.82;nan
6349;BME280;3207;42.648;23.406;2023-04-15T10:33:09;99066.44;;;15.51;nan
6349;BME280;3207;42.648;23.406;2023-04-15T10:35:38;99075.50;;;15.24;nan
6349;BME280;3207;42.648;23.406;2023-04-15T10:38:36;99060.53;;;15.41;nan
6349;BME280;3207;42.648;23.406;2023-04-15T10:41:17;99078.97;;;15.33;nan
6349;BME280;3207;42.648;23.406;2023-04-15T10:43:46;99085.53;;;15.21;nan
6349;BME280;3207;42.648;23.406;2023-04-15T10:46:17;99094.56;;;15.02;nan
6349;BME280;3207;42.648;23.406;2023-04-15T10:48:49;99105.06;;;14.94;nan
6349;BME280;3207;42.648;23.406;2023-04-15T10:51:25;99084.88;;;14.52;nan
6349;BME280;3207;42.648;23.406;2023-04-15T10:53:55;99065.50;;;14.53;nan
6349;BME280;3207;42.648;23.406;2023-04-15T10:56:23;99047.31;;;14.76;nan
6349;BME280;3207;42.648;23.406;2023-04-15T10:58:49;99040.59;;;14.82;nan
6349;BME280;3207;42.648;23.406;2023-04-15T11:01:18;99034.50;;;14.89;nan
6349;BME280;3207;42.648;23.406;2023-04-15T11:03:47;99048.50;;;15.06;nan
6349;BME280;3207;42.648;23.406;2023-04-15T11:06:15;99051.00;;;15.24;nan
6349;BME280;3207;42.648;23.406;2023-04-15T11:08:59;99061.72;;;15.55;nan
6349;BME280;3207;42.648;23.406;2023-04-15T11:12:05;99057.06;;;15.73;nan
6349;BME280;3207;42.648;23.406;2023-04-15T11:14:33;99053.41;;;15.82;nan
6349;BME280;3207;42.648;23.406;2023-04-15T11:17:01;99054.88;;;16.32;nan
6349;BME280;3207;42.648;23.406;2023-04-15T11:19:35;99032.13;;;16.70;nan
6349;BME280;3207;42.648;23.406;2023-04-15T11:22:06;99034.22;;;17.43;nan
6349;BME280;3207;42.648;23.406;2023-04-15T11:24:35;99041.50;;;17.93;nan
6349;BME280;3207;42.648;23.406;2023-04-15T11:27:02;99045.22;;;18.28;nan
6349;BME280;3207;42.648;23.406;2023-04-15T11:29:29;99039.06;;;18.57;nan
6349;BME280;3207;42.648;23.406;2023-04-15T11:32:07;99035.34;;;18.87;nan
6349;BME280;3207;42.648;23.406;2023-04-15T11:34:34;99035.00;;;18.97;nan
6349;BME280;3207;42.648;23.406;2023-04-15T11:37:03;99032.00;;;18.79;nan
6349;BME280;3207;42.648;23.406;2023-04-15T11:39:31;99031.81;;;18.80;nan
6349;BME280;3207;42.648;23.406;2023-04-15T11:41:59;99035.16;;;18.89;nan
6349;BME280;3207;42.648;23.406;2023-04-15T11:44:26;99044.75;;;18.90;nan
6349;BME280;3207;42.648;23.406;2023-04-15T11:46:54;99040.91;;;18.92;nan
6349;BME280;3207;42.648;23.406;2023-04-15T11:49:27;99044.34;;;18.57;nan
6349;BME280;3207;42.648;23.406;2023-04-15T11:51:54;99043.06;;;18.68;nan
6349;BME280;3207;42.648;23.406;2023-04-15T11:54:21;99064.00;;;18.62;nan
6349;BME280;3207;42.648;23.406;2023-04-15T11:56:51;99078.34;;;18.24;nan
6349;BME280;3207;42.648;23.406;2023-04-15T11:59:20;99096.13;;;17.86;nan
6349;BME280;3207;42.648;23.406;2023-04-15T12:01:47;99119.91;;;16.64;nan
6349;BME280;3207;42.648;23.406;2023-04-15T12:04:16;99122.59;;;15.52;nan
6349;BME280;3207;42.648;23.406;2023-04-15T12:06:46;99123.97;;;14.89;nan
6349;BME280;3207;42.648;23.406;2023-04-15T12:09:14;99114.13;;;14.15;nan
6349;BME280;3207;42.648;23.406;2023-04-15T12:11:43;99114.44;;;14.12;nan
6349;BME280;3207;42.648;23.406;2023-04-15T12:14:24;99110.94;;;14.38;nan
6349;BME280;3207;42.648;23.406;2023-04-15T12:16:54;99105.22;;;14.42;nan
6349;BME280;3207;42.648;23.406;2023-04-15T12:19:25;99100.78;;;14.43;nan
6349;BME280;3207;42.648;23.406;2023-04-15T12:21:56;99107.50;;;14.37;nan
6349;BME280;3207;42.648;23.406;2023-04-15T12:24:24;99117.41;;;14.43;nan
6349;BME280;3207;42.648;23.406;2023-04-15T12:26:53;99123.34;;;14.53;nan
6349;BME280;3207;42.648;23.406;2023-04-15T12:29:26;99136.47;;;14.45;nan
6349;BME280;3207;42.648;23.406;2023-04-15T12:31:54;99134.38;;;14.49;nan
6349;BME280;3207;42.648;23.406;2023-04-15T12:34:29;99115.13;;;14.22;nan
6349;BME280;3207;42.648;23.406;2023-04-15T12:36:57;99133.19;;;14.43;nan
6349;BME280;3207;42.648;23.406;2023-04-15T12:39:25;99124.03;;;14.55;nan
6349;BME280;3207;42.648;23.406;2023-04-15T12:41:53;99099.81;;;14.44;nan
6349;BME280;3207;42.648;23.406;2023-04-15T12:44:23;99087.91;;;14.65;nan
6349;BME280;3207;42.648;23.406;2023-04-15T12:46:50;99083.63;;;14.73;nan
6349;BME280;3207;42.648;23.406;2023-04-15T12:49:18;99091.53;;;14.73;nan
6349;BME280;3207;42.648;23.406;2023-04-15T12:51:46;99052.59;;;14.84;nan
6349;BME280;3207;42.648;23.406;2023-04-15T12:54:15;99051.28;;;14.88;nan
6349;BME280;3207;42.648;23.406;2023-04-15T12:56:42;99065.63;;;15.18;nan
6349;BME280;3207;42.648;23.406;2023-04-15T12:59:09;99067.94;;;15.29;nan
6349;BME280;3207;42.648;23.406;2023-04-15T13:01:37;99073.88;;;15.56;nan
6349;BME280;3207;42.648;23.406;2023-04-15T13:04:05;99061.00;;;15.77;nan
6349;BME280;3207;42.648;23.406;2023-04-15T13:06:32;99068.47;;;16.13;nan
6349;BME280;3207;42.648;23.406;2023-04-15T13:08:59;99067.78;;;16.27;nan
6349;BME280;3207;42.648;23.406;2023-04-15T13:11:26;99053.25;;;16.31;nan
6349;BME280;3207;42.648;23.406;2023-04-15T13:13:55;99059.09;;;16.49;nan
6349;BME280;3207;42.648;23.406;2023-04-15T13:16:23;99055.44;;;16.58;nan
6349;BME280;3207;42.648;23.406;2023-04-15T13:18:51;99047.44;;;16.74;nan
6349;BME280;3207;42.648;23.406;2023-04-15T13:21:18;99038.19;;;16.78;nan
6349;BME280;3207;42.648;23.406;2023-04-15T13:23:45;99024.00;;;16.79;nan
6349;BME280;3207;42.648;23.406;2023-04-15T13:26:12;99030.97;;;16.72;nan
6349;BME280;3207;42.648;23.406;2023-04-15T13:28:39;99038.28;;;16.54;nan
6349;BME280;3207;42.648;23.406;2023-04-15T13:31:06;99035.38;;;16.49;nan
6349;BME280;3207;42.648;23.406;2023-04-15T13:33:32;99040.38;;;16.36;nan
6349;BME280;3207;42.648;23.406;2023-04-15T13:36:01;99048.56;;;16.02;nan
6349;BME280;3207;42.648;23.406;2023-04-15T13:38:28;99039.53;;;15.96;nan
6349;BME280;3207;42.648;23.406;2023-04-15T13:40:54;99051.00;;;16.20;nan